Los 121 — 3YAJ — position and weather

sailwx.info

Track history (hours):
 
Tides and Currents Weather Stations Pressure Air Temp Water Temp Dewpoint Dewpoint Depression Visibility Wind Speed Wind Dir Waves Ship Positions

Los 121

Last reported at 2018-Apr-20 08:34 UTC. Time now 2018-Jun-20 23:09 UTC.
Position N 67°42' E 014°22'.
Warning: this ship's position is months out of date.

Length 17 m; draft 2 m.

Type: Pilot. MMSI: 257008300.

Date/timePositionNaut miles runAvg speedWind from/ knotsBaromVisibWave heightAir tempDewpointWater temp
2018-Apr-20 08:34N 67°42' E 014°22'125.3
2018-Apr-20 08:31N 67°40' E 014°21'1325.3
2018-Apr-20 08:01N 67°28' E 014°26'1224.6
2018-Apr-20 07:31N 67°17' E 014°14'1325.9
2018-Apr-20 07:00N 67°06' E 013°56'1325.3
2018-Apr-20 06:30N 66°58' E 013°31'1624.7
2018-Apr-20 05:51N 66°43' E 013°11'1125.3
2018-Apr-20 05:24N 66°33' E 013°02'1024.5
2018-Apr-20 05:00N 66°23' E 012°58'1325.7
2018-Apr-20 04:29N 66°10' E 012°50'  
2018-Apr-13 10:18N 66°04' E 012°39'723.0
2018-Apr-13 10:00N 66°11' E 012°38'5 8.5
2018-Apr-13 09:24N 66°13' E 012°50'2 1.6
2018-Apr-13 08:00N 66°14' E 012°55'1 2.5
2018-Apr-13 07:30N 66°13' E 012°58'4 7.1
2018-Apr-13 06:57N 66°11' E 012°50'6 0.6
2018-Apr-12 21:34N 66°07' E 012°40'113.7
2018-Apr-12 21:29N 66°08' E 012°40'613.2
2018-Apr-12 21:00N 66°14' E 012°36'2 4.8
2018-Apr-12 20:31N 66°12' E 012°41'810.2
2018-Apr-12 19:41N 66°04' E 012°39'2 0.7
2018-Apr-12 16:06N 66°02' E 012°38'111.2
2018-Apr-12 16:00N 66°03' E 012°39'610.8
2018-Apr-12 15:29N 66°08' E 012°39'4 8.0
2018-Apr-12 15:00N 66°12' E 012°39'4 5.5
2018-Apr-12 14:14N 66°08' E 012°40'625.1
2018-Apr-12 14:00N 66°14' E 012°37'3 6.9
2018-Apr-12 13:30N 66°10' E 012°39'9 1.9
2018-Apr-12 09:00N 66°01' E 012°38'714.4
2018-Apr-12 08:30N 66°07' E 012°48'711.9
2018-Apr-12 07:56N 66°13' E 012°57'14 5.2
2018-Apr-12 05:15N 66°01' E 012°38'520.6
2018-Apr-12 05:00N 66°07' E 012°40'510.1
2018-Apr-12 04:30N 66°12' E 012°39'8 1.4
2018-Apr-11 22:28N 66°03' E 012°38'817.0
2018-Apr-11 22:00N 66°11' E 012°39'918.8
2018-Apr-11 21:30N 66°17' E 012°20'1520.1
2018-Apr-11 20:46N 66°04' E 012°39'1 0.1
2018-Apr-11 15:29N 66°03' E 012°39'1121.7
2018-Apr-11 14:59N 66°14' E 012°37'13 0.6
2018-Apr-10 17:41N 66°01' E 012°38'920.5
2018-Apr-10 17:16N 66°10' E 012°39'416.5
2018-Apr-10 17:01N 66°14' E 012°37'  
Track history (hours):
 
Tides and Currents Weather Stations Pressure Air Temp Water Temp Dewpoint Dewpoint Depression Visibility Wind Speed Wind Dir Waves Ship Positions

Los 121

Last reported at 2018-Apr-20 08:34 UTC. Time now 2018-Jun-20 23:09 UTC.
Position N 67°42' E 014°22'.
Warning: this ship's position is months out of date.

Length 17 m; draft 2 m.

Type: Pilot. MMSI: 257008300.

Date/timePositionNaut miles runAvg speedWind from/ knotsBaromVisibWave heightAir tempDewpointWater temp
2018-Apr-20 08:34N 67°42' E 014°22'125.3
2018-Apr-20 08:31N 67°40' E 014°21'1325.3
2018-Apr-20 08:01N 67°28' E 014°26'1224.6
2018-Apr-20 07:31N 67°17' E 014°14'1325.9
2018-Apr-20 07:00N 67°06' E 013°56'1325.3
2018-Apr-20 06:30N 66°58' E 013°31'1624.7
2018-Apr-20 05:51N 66°43' E 013°11'1125.3
2018-Apr-20 05:24N 66°33' E 013°02'1024.5
2018-Apr-20 05:00N 66°23' E 012°58'1325.7
2018-Apr-20 04:29N 66°10' E 012°50'  
2018-Apr-13 10:18N 66°04' E 012°39'723.0
2018-Apr-13 10:00N 66°11' E 012°38'5 8.5
2018-Apr-13 09:24N 66°13' E 012°50'2 1.6
2018-Apr-13 08:00N 66°14' E 012°55'1 2.5
2018-Apr-13 07:30N 66°13' E 012°58'4 7.1
2018-Apr-13 06:57N 66°11' E 012°50'6 0.6
2018-Apr-12 21:34N 66°07' E 012°40'113.7
2018-Apr-12 21:29N 66°08' E 012°40'613.2
2018-Apr-12 21:00N 66°14' E 012°36'2 4.8
2018-Apr-12 20:31N 66°12' E 012°41'810.2
2018-Apr-12 19:41N 66°04' E 012°39'2 0.7
2018-Apr-12 16:06N 66°02' E 012°38'111.2
2018-Apr-12 16:00N 66°03' E 012°39'610.8
2018-Apr-12 15:29N 66°08' E 012°39'4 8.0
2018-Apr-12 15:00N 66°12' E 012°39'4 5.5
2018-Apr-12 14:14N 66°08' E 012°40'625.1
2018-Apr-12 14:00N 66°14' E 012°37'3 6.9
2018-Apr-12 13:30N 66°10' E 012°39'9 1.9
2018-Apr-12 09:00N 66°01' E 012°38'714.4
2018-Apr-12 08:30N 66°07' E 012°48'711.9
2018-Apr-12 07:56N 66°13' E 012°57'14 5.2
2018-Apr-12 05:15N 66°01' E 012°38'520.6
2018-Apr-12 05:00N 66°07' E 012°40'510.1
2018-Apr-12 04:30N 66°12' E 012°39'8 1.4
2018-Apr-11 22:28N 66°03' E 012°38'817.0
2018-Apr-11 22:00N 66°11' E 012°39'918.8
2018-Apr-11 21:30N 66°17' E 012°20'1520.1
2018-Apr-11 20:46N 66°04' E 012°39'1 0.1
2018-Apr-11 15:29N 66°03' E 012°39'1121.7
2018-Apr-11 14:59N 66°14' E 012°37'13 0.6
2018-Apr-10 17:41N 66°01' E 012°38'920.5
2018-Apr-10 17:16N 66°10' E 012°39'416.5
2018-Apr-10 17:01N 66°14' E 012°37'  

Dump ship's entire track history